Time;durP1;ratioP1;P1;durP2;ratioP2;P2;SDS_P1;SDS_P2;PMS_P1;PMS_P2;Temp;Humidity;BMP_temperature;BMP_pressure;BME280_temperature;BME280_humidity;BME280_pressure;Samples;Min_cycle;Max_cycle;Signal;HPM_P1;HPM_P2
2021/12/31 00:00:08;;;;;;;9.73;3.25;;;;;;;13.14;91.96;101722.94;5022905;28;20053;-71
2021/12/31 00:02:34;;;;;;;11.52;3.47;;;;;;;13.14;91.67;101718.25;5023707;28;20017;-72
2021/12/31 00:04:59;;;;;;;9.48;3.58;;;;;;;13.20;90.75;101713.75;5024054;28;20512;-71
2021/12/31 00:07:24;;;;;;;10.43;2.97;;;;;;;13.20;90.95;101711.00;5023204;28;20046;-71
2021/12/31 00:09:50;;;;;;;9.27;3.58;;;;;;;13.15;91.09;101719.94;5023517;28;20038;-72
2021/12/31 00:12:15;;;;;;;10.10;3.42;;;;;;;13.18;90.54;101713.97;5022981;28;20107;-71
2021/12/31 00:14:40;;;;;;;7.97;3.40;;;;;;;13.19;90.65;101703.78;5022893;28;20392;-72
2021/12/31 00:17:06;;;;;;;7.40;3.58;;;;;;;13.26;89.72;101714.78;5022746;28;20276;-72
2021/12/31 00:19:37;;;;;;;9.07;3.08;;;;;;;13.22;89.87;101720.75;5023698;28;20251;-64
2021/12/31 00:22:18;;;;;;;8.45;2.97;;;;;;;13.18;90.26;101725.00;5023206;28;20469;-67
2021/12/31 00:24:43;;;;;;;7.47;3.13;;;;;;;13.22;89.89;101719.91;5036550;28;20395;-70
2021/12/31 00:27:08;;;;;;;10.57;3.70;;;;;;;13.20;89.77;101722.88;5042215;28;20029;-71
2021/12/31 00:29:33;;;;;;;7.87;2.93;;;;;;;13.20;89.95;101722.03;5042764;28;20032;-72
2021/12/31 00:31:59;;;;;;;10.07;4.28;;;;;;;13.26;89.29;101723.91;5043221;28;20295;-71
2021/12/31 00:34:24;;;;;;;8.88;3.20;;;;;;;13.22;89.62;101717.13;5042980;28;20029;-71
2021/12/31 00:36:49;;;;;;;8.05;3.53;;;;;;;13.21;89.48;101718.19;5042902;28;20029;-71
2021/12/31 00:39:15;;;;;;;7.77;3.80;;;;;;;13.20;89.43;101719.25;5042350;28;20025;-70
2021/12/31 00:41:41;;;;;;;8.15;2.80;;;;;;;13.17;89.74;101717.78;5042572;28;20275;-71
2021/12/31 00:44:06;;;;;;;9.52;3.00;;;;;;;13.18;89.52;101719.50;5042581;28;20482;-72
2021/12/31 00:46:32;;;;;;;10.85;3.33;;;;;;;13.19;89.28;101714.81;5041992;28;20048;-71
2021/12/31 00:48:58;;;;;;;9.70;3.10;;;;;;;13.14;89.83;101725.69;5043629;28;20060;-71
2021/12/31 00:51:25;;;;;;;8.80;3.03;;;;;;;13.14;89.45;101720.19;5042652;28;20055;-71
2021/12/31 00:53:51;;;;;;;12.13;3.80;;;;;;;13.13;89.70;101715.72;5042292;28;20222;-71
2021/12/31 00:56:17;;;;;;;7.57;3.28;;;;;;;13.15;89.37;101716.34;5041370;28;20025;-71
2021/12/31 00:58:42;;;;;;;9.82;3.10;;;;;;;13.15;89.35;101724.63;5042921;28;20232;-71
2021/12/31 01:01:09;;;;;;;8.43;3.42;;;;;;;13.10;89.82;101717.03;5041374;28;20478;-72
2021/12/31 01:03:34;;;;;;;7.95;3.67;;;;;;;13.09;89.84;101725.53;5042804;28;20025;-70
2021/12/31 01:05:59;;;;;;;6.87;3.17;;;;;;;13.12;89.27;101728.66;5043243;28;20036;-71
2021/12/31 01:08:24;;;;;;;9.63;3.10;;;;;;;13.12;89.57;101733.31;5042265;28;20292;-70
2021/12/31 01:10:50;;;;;;;8.18;3.72;;;;;;;13.14;89.36;101728.44;5041884;28;20504;-71
2021/12/31 01:13:25;;;;;;;8.13;3.38;;;;;;;13.11;89.37;101734.41;5042098;28;20029;-71
2021/12/31 01:15:57;;;;;;;10.38;3.22;;;;;;;13.07;89.70;101733.16;5041646;28;20025;-71
2021/12/31 01:18:27;;;;;;;8.27;3.58;;;;;;;13.07;89.61;101727.66;5042213;28;20482;-71
2021/12/31 01:20:53;;;;;;;9.80;4.03;;;;;;;13.09;89.21;101729.13;5042214;28;20029;-71
2021/12/31 01:23:18;;;;;;;6.55;2.65;;;;;;;13.05;89.45;101725.13;5042175;28;20032;-72
2021/12/31 01:25:44;;;;;;;9.02;3.20;;;;;;;13.06;89.43;101720.44;5042478;28;20112;-71
2021/12/31 01:28:10;;;;;;;9.25;3.28;;;;;;;13.10;89.36;101721.69;5042444;28;20032;-71
2021/12/31 01:30:35;;;;;;;10.63;3.35;;;;;;;13.09;89.21;101720.00;5041118;28;20368;-71
2021/12/31 01:33:01;;;;;;;8.00;3.00;;;;;;;13.05;89.39;101718.78;5042909;28;20759;-71
2021/12/31 01:35:26;;;;;;;8.75;3.20;;;;;;;13.04;89.38;101728.13;5042436;28;20017;-71
2021/12/31 01:37:51;;;;;;;7.07;3.17;;;;;;;13.03;89.47;101731.91;5041979;28;20029;-71
2021/12/31 01:40:17;;;;;;;8.10;3.17;;;;;;;13.01;89.84;101729.41;5044862;28;20024;-70
2021/12/31 01:42:42;;;;;;;11.90;3.00;;;;;;;13.02;89.56;101738.50;5062659;28;20281;-72
2021/12/31 01:45:19;;;;;;;10.65;3.35;;;;;;;13.03;89.65;101738.31;5060808;28;20442;-71
2021/12/31 01:48:09;;;;;;;11.60;3.30;;;;;;;12.99;89.63;101734.31;5062104;28;20025;-72
2021/12/31 01:50:31;;;;;;;10.35;3.58;;;;;;;12.99;89.34;101740.66;5061717;28;20056;-71
2021/12/31 01:52:58;;;;;;;10.00;3.35;;;;;;;12.99;89.55;101742.56;5062259;28;20541;-72
2021/12/31 01:55:26;;;;;;;10.38;2.95;;;;;;;12.96;89.46;101745.78;5061279;28;20027;-71
2021/12/31 01:57:53;;;;;;;6.95;3.03;;;;;;;13.03;88.87;101745.72;5061704;28;20051;-71
2021/12/31 02:00:19;;;;;;;8.50;3.30;;;;;;;12.98;89.62;101752.78;5060955;28;20210;-71
2021/12/31 02:02:46;;;;;;;6.72;3.10;;;;;;;12.96;89.36;101749.38;5062486;28;20482;-71
2021/12/31 02:05:12;;;;;;;8.50;4.03;;;;;;;12.94;89.27;101748.75;5061896;28;20160;-71
2021/12/31 02:07:38;;;;;;;9.10;2.85;;;;;;;12.99;88.90;101753.59;5025358;28;20057;-72
2021/12/31 02:10:05;;;;;;;10.98;3.80;;;;;;;12.98;89.19;101761.03;5025693;28;20026;-71
2021/12/31 02:12:32;;;;;;;8.50;2.80;;;;;;;13.02;88.75;101763.34;5025560;28;20025;-71
2021/12/31 02:14:57;;;;;;;8.80;2.95;;;;;;;12.98;88.80;101749.16;5025679;28;20025;-71
2021/12/31 02:17:23;;;;;;;6.78;2.95;;;;;;;13.01;88.76;101750.63;5025249;28;20048;-71
2021/12/31 02:20:05;;;;;;;9.05;2.60;;;;;;;12.99;89.31;101750.84;5025403;28;20298;-71
2021/12/31 02:22:30;;;;;;;9.10;2.85;;;;;;;12.98;88.90;101752.78;5026097;28;20040;-71
2021/12/31 02:24:57;;;;;;;8.95;3.05;;;;;;;12.99;88.68;101742.56;5025479;28;20017;-71
2021/12/31 02:27:25;;;;;;;9.88;3.35;;;;;;;12.98;88.74;101735.38;5025080;28;20045;-70
2021/12/31 02:29:51;;;;;;;8.18;2.80;;;;;;;13.01;88.41;101734.06;5024822;28;20103;-71
2021/12/31 02:32:17;;;;;;;8.18;3.10;;;;;;;12.95;88.80;101742.19;5024930;28;20021;-71
2021/12/31 02:34:42;;;;;;;8.57;3.60;;;;;;;12.93;88.54;101733.28;5026143;28;20036;-71
2021/12/31 02:37:07;;;;;;;8.05;3.05;;;;;;;12.95;88.58;101744.94;5025385;28;20491;-71
2021/12/31 02:39:34;;;;;;;10.07;3.10;;;;;;;12.96;88.58;101743.84;5025398;28;20018;-71
2021/12/31 02:42:00;;;;;;;8.18;2.85;;;;;;;12.95;88.68;101735.81;5025134;28;20034;-71
2021/12/31 02:44:25;;;;;;;8.73;2.95;;;;;;;12.93;88.81;101727.78;5024438;28;20025;-71
2021/12/31 02:46:50;;;;;;;9.63;3.70;;;;;;;12.95;87.64;101733.91;5025565;28;20468;-71
2021/12/31 02:49:19;;;;;;;9.85;3.47;;;;;;;12.95;88.54;101731.16;5024763;28;20115;-71
2021/12/31 02:51:44;;;;;;;11.40;3.25;;;;;;;12.93;88.54;101730.53;5025434;28;20180;-70
2021/12/31 02:54:11;;;;;;;9.23;3.08;;;;;;;12.92;88.37;101720.56;5040032;28;20119;-69
2021/12/31 02:56:37;;;;;;;8.50;3.10;;;;;;;12.91;88.47;101716.13;5044122;28;20019;-71
2021/12/31 02:59:02;;;;;;;9.60;3.65;;;;;;;12.91;88.23;101720.78;5042447;28;20383;-67
2021/12/31 03:01:28;;;;;;;7.63;2.90;;;;;;;12.92;88.46;101717.78;5045192;28;20177;-72
2021/12/31 03:03:54;;;;;;;8.25;2.65;;;;;;;12.94;87.99;101723.94;5044439;28;20024;-71
2021/12/31 03:06:21;;;;;;;12.60;3.58;;;;;;;12.93;87.82;101725.03;5044404;28;20028;-71
2021/12/31 03:08:48;;;;;;;10.13;3.20;;;;;;;12.95;87.67;101724.78;5044959;28;20063;-71
2021/12/31 03:11:16;;;;;;;9.80;2.70;;;;;;;13.04;87.15;101722.59;5044037;28;20122;-71
2021/12/31 03:13:42;;;;;;;10.35;3.08;;;;;;;12.93;88.21;101716.75;5044892;28;20040;-71
2021/12/31 03:16:08;;;;;;;8.27;2.88;;;;;;;12.92;88.15;101720.56;5043722;28;20053;-71
2021/12/31 03:18:35;;;;;;;13.52;3.35;;;;;;;12.92;87.55;101714.19;5044257;28;20495;-71
2021/12/31 03:21:13;;;;;;;7.95;3.20;;;;;;;12.91;87.46;101713.34;5044561;28;20423;-71
2021/12/31 03:23:38;;;;;;;8.48;2.75;;;;;;;12.89;87.95;101711.91;5044015;28;20113;-71
2021/12/31 03:26:03;;;;;;;12.20;3.15;;;;;;;12.88;87.95;101713.00;5043694;28;20092;-70
2021/12/31 03:28:29;;;;;;;7.88;3.70;;;;;;;12.89;87.83;101714.66;5045153;28;20376;-71
2021/12/31 03:30:54;;;;;;;8.35;3.35;;;;;;;12.86;87.75;101707.66;5043780;28;20055;-71
2021/12/31 03:33:20;;;;;;;9.30;3.38;;;;;;;12.83;87.89;101707.31;5044038;28;20048;-71
2021/12/31 03:35:46;;;;;;;8.68;3.50;;;;;;;12.79;88.05;101703.31;5044345;28;20083;-71
2021/12/31 03:38:12;;;;;;;9.77;2.90;;;;;;;12.80;88.35;101707.75;5044120;28;20021;-72
2021/12/31 03:40:38;;;;;;;9.07;3.50;;;;;;;12.79;87.78;101709.66;5043297;28;20567;-71
2021/12/31 03:43:03;;;;;;;9.13;3.17;;;;;;;12.78;87.97;101705.22;5044045;28;20056;-70
2021/12/31 03:45:28;;;;;;;7.03;3.28;;;;;;;12.76;88.39;101706.50;5043955;28;20155;-70
2021/12/31 03:47:54;;;;;;;9.93;3.50;;;;;;;12.73;88.47;101705.03;5044307;28;20037;-70
2021/12/31 03:50:19;;;;;;;8.07;3.25;;;;;;;12.73;88.43;101705.88;5043574;28;20021;-71
2021/12/31 03:52:44;;;;;;;9.13;3.55;;;;;;;12.75;88.09;101704.81;5043939;28;20079;-71
2021/12/31 03:55:11;;;;;;;9.25;3.70;;;;;;;12.74;88.31;101701.22;5043114;28;20028;-70
2021/12/31 03:57:37;;;;;;;9.15;3.65;;;;;;;12.75;88.08;101694.63;5043633;28;20028;-71
2021/12/31 04:00:05;;;;;;;10.23;3.53;;;;;;;12.73;88.10;101700.38;5043067;28;20379;-70
2021/12/31 04:02:31;;;;;;;8.52;3.70;;;;;;;12.73;88.18;101700.38;5043683;28;20484;-71
2021/12/31 04:04:56;;;;;;;8.55;3.58;;;;;;;12.72;88.14;101701.44;5044287;28;20090;-71
2021/12/31 04:07:22;;;;;;;9.75;3.80;;;;;;;12.68;88.93;101699.34;5043546;28;20045;-71
2021/12/31 04:09:47;;;;;;;10.27;3.95;;;;;;;12.68;88.63;101702.97;5042719;28;20025;-71
2021/12/31 04:12:12;;;;;;;8.80;3.60;;;;;;;12.69;88.56;101690.00;5042793;28;20523;-71
2021/12/31 04:14:38;;;;;;;11.15;3.60;;;;;;;12.66;88.84;101696.81;5042799;28;20487;-71
2021/12/31 04:17:03;;;;;;;9.27;3.60;;;;;;;12.66;88.95;101698.72;5042671;28;20219;-70
2021/12/31 04:19:28;;;;;;;8.85;3.40;;;;;;;12.64;88.94;101700.88;5044195;28;20479;-70
2021/12/31 04:21:53;;;;;;;9.43;3.50;;;;;;;12.66;88.73;101695.97;5043264;28;20075;-71
2021/12/31 04:24:52;;;;;;;9.80;3.92;;;;;;;12.69;88.63;101696.38;5042762;28;20287;-70
2021/12/31 04:27:16;;;;;;;9.13;3.57;;;;;;;12.67;88.85;101695.75;5042244;28;20033;-71
2021/12/31 04:29:49;;;;;;;8.25;4.05;;;;;;;12.69;88.33;101695.53;5042409;28;20267;-71
2021/12/31 04:32:14;;;;;;;9.98;3.83;;;;;;;12.69;88.45;101696.38;5042782;28;20032;-71
2021/12/31 04:34:39;;;;;;;10.05;3.70;;;;;;;12.76;88.14;101689.94;5043331;28;20033;-72
2021/12/31 04:37:05;;;;;;;10.38;3.85;;;;;;;12.71;88.22;101688.72;5042089;28;20107;-70
2021/12/31 04:39:30;;;;;;;11.00;4.20;;;;;;;12.76;87.78;101674.25;5043417;28;20716;-71
2021/12/31 04:41:55;;;;;;;13.57;3.90;;;;;;;12.69;88.47;101682.59;5042557;28;20013;-70
2021/12/31 04:44:21;;;;;;;6.03;3.30;;;;;;;12.74;88.06;101673.66;5042097;28;20064;-71
2021/12/31 04:46:46;;;;;;;9.80;3.92;;;;;;;12.72;88.40;101681.28;5043039;28;20502;-71
2021/12/31 04:49:11;;;;;;;9.07;5.15;;;;;;;12.72;88.32;101676.63;5042528;28;20096;-71
2021/12/31 04:51:37;;;;;;;10.50;4.03;;;;;;;12.70;88.45;101664.13;5042479;28;20021;-71
2021/12/31 04:54:02;;;;;;;11.95;4.07;;;;;;;12.74;87.90;101668.13;5042632;28;20309;-64
2021/12/31 04:56:28;;;;;;;9.90;4.20;;;;;;;12.69;88.10;101676.22;5042854;28;20368;-71
2021/12/31 04:58:53;;;;;;;14.35;4.30;;;;;;;12.70;88.07;101683.44;5042783;28;20025;-71
2021/12/31 05:01:21;;;;;;;10.82;4.55;;;;;;;12.69;88.28;101688.09;5042110;28;20060;-71
2021/12/31 05:03:47;;;;;;;;;;;;;;;12.76;88.12;101674.25;5043508;28;20017;-71
2021/12/31 05:06:12;;;;;;;8.48;3.60;;;;;;;12.70;87.42;101673.25;5041998;28;19986;-71
2021/12/31 05:08:37;;;;;;;9.85;5.07;;;;;;;12.65;87.67;101683.25;5042305;28;20108;-72
2021/12/31 05:11:02;;;;;;;8.70;3.92;;;;;;;12.72;87.32;101667.50;5041818;28;20443;-69
2021/12/31 05:13:28;;;;;;;11.23;3.88;;;;;;;12.70;87.29;101680.69;5042419;28;20036;-71
2021/12/31 05:15:56;;;;;;;10.38;4.00;;;;;;;12.84;86.21;101676.75;5042123;28;20467;-70
2021/12/31 05:18:23;;;;;;;12.43;4.28;;;;;;;12.75;87.23;101691.88;5042897;28;20065;-70
2021/12/31 05:20:49;;;;;;;13.80;4.38;;;;;;;12.75;87.00;101682.75;5042183;28;20033;-70
2021/12/31 05:23:14;;;;;;;10.17;4.20;;;;;;;12.70;87.42;101667.72;5040358;28;20361;-71
2021/12/31 05:25:39;;;;;;;10.55;4.95;;;;;;;12.70;86.45;101664.13;5029595;28;20280;-71
2021/12/31 05:28:04;;;;;;;8.88;4.07;;;;;;;12.69;87.22;101676.22;5022564;28;20345;-70
2021/12/31 05:30:30;;;;;;;10.35;4.00;;;;;;;12.71;86.99;101665.81;5021734;28;20107;-71
2021/12/31 05:32:55;;;;;;;8.82;3.70;;;;;;;12.69;86.66;101659.69;5022574;28;20029;-71
2021/12/31 05:35:20;;;;;;;8.13;3.95;;;;;;;12.69;86.61;101654.19;5022007;28;20881;-71
2021/12/31 05:37:45;;;;;;;8.25;3.92;;;;;;;12.64;87.08;101648.50;5022385;28;20021;-70
2021/12/31 05:40:11;;;;;;;9.23;4.28;;;;;;;12.69;86.05;101648.66;5021956;28;20033;-70
2021/12/31 05:42:37;;;;;;;10.57;3.92;;;;;;;12.63;86.44;101644.91;5022840;28;20325;-70
2021/12/31 05:45:03;;;;;;;8.55;4.00;;;;;;;12.64;86.28;101634.72;5025364;28;20476;-67
2021/12/31 05:47:28;;;;;;;8.30;3.55;;;;;;;12.58;86.68;101635.63;5026661;28;20045;-70
2021/12/31 05:49:54;;;;;;;10.85;4.25;;;;;;;12.58;86.49;101624.59;5026267;28;20120;-69
2021/12/31 05:52:19;;;;;;;13.77;4.00;;;;;;;12.53;86.38;101625.28;5026341;28;20018;-70
2021/12/31 05:54:44;;;;;;;8.77;3.75;;;;;;;12.45;86.68;101625.53;5025943;28;20033;-71
2021/12/31 05:57:09;;;;;;;11.32;4.05;;;;;;;12.34;87.20;101634.53;5025500;28;20033;-70
2021/12/31 05:59:35;;;;;;;13.40;4.18;;;;;;;12.27;87.66;101637.34;5025729;28;20376;-70
2021/12/31 06:02:00;;;;;;;9.60;4.38;;;;;;;12.26;87.25;101635.63;5026450;28;20072;-70
2021/12/31 06:04:25;;;;;;;10.63;4.57;;;;;;;12.16;88.11;101646.31;5026072;28;20022;-70
2021/12/31 06:06:50;;;;;;;8.05;4.03;;;;;;;12.16;87.73;101644.38;5026020;28;20332;-71
2021/12/31 06:09:16;;;;;;;10.52;4.05;;;;;;;12.10;87.52;101641.69;5025435;28;20091;-71
2021/12/31 06:11:42;;;;;;;11.32;4.53;;;;;;;12.01;88.22;101643.84;5025296;28;20040;-71
2021/12/31 06:14:09;;;;;;;6.00;3.70;;;;;;;11.94;88.63;101643.91;5025136;28;20551;-70
2021/12/31 06:16:42;;;;;;;9.38;3.60;;;;;;;11.92;88.52;101648.78;5023810;28;20029;-70
2021/12/31 06:19:12;;;;;;;9.70;4.07;;;;;;;11.91;88.77;101660.00;5025483;28;20144;-71
2021/12/31 06:21:40;;;;;;;14.48;5.13;;;;;;;11.88;88.67;101668.72;5025428;28;20075;-71
2021/12/31 06:24:06;;;;;;;8.50;3.67;;;;;;;11.78;89.15;101669.16;5025176;28;20025;-70
2021/12/31 06:26:32;;;;;;;11.00;4.00;;;;;;;11.78;89.42;101671.06;5025017;28;20341;-64
2021/12/31 06:28:57;;;;;;;11.02;3.80;;;;;;;11.74;89.34;101669.81;5025278;28;20041;-71
2021/12/31 06:31:23;;;;;;;8.30;3.95;;;;;;;11.78;88.72;101662.81;5024763;28;20033;-70
2021/12/31 06:33:49;;;;;;;11.30;4.47;;;;;;;11.74;89.02;101656.03;5025473;28;20033;-70
2021/12/31 06:36:15;;;;;;;10.15;4.20;;;;;;;11.74;89.33;101650.53;5025222;28;20038;-70
2021/12/31 06:38:40;;;;;;;9.43;4.50;;;;;;;11.70;88.87;101658.38;5025215;28;20020;-71
2021/12/31 06:41:06;;;;;;;9.90;3.95;;;;;;;11.65;89.24;101661.78;5025236;28;20030;-70
2021/12/31 06:43:31;;;;;;;9.70;3.95;;;;;;;11.59;89.74;101664.56;5044374;28;20112;-68
2021/12/31 06:45:56;;;;;;;9.90;3.55;;;;;;;11.55;89.95;101666.06;5045024;28;20048;-70
2021/12/31 06:48:21;;;;;;;7.93;3.72;;;;;;;11.61;89.40;101656.97;5044909;28;20033;-70
2021/12/31 06:50:47;;;;;;;11.07;4.00;;;;;;;11.57;89.52;101664.78;5045195;28;20029;-70
2021/12/31 06:53:12;;;;;;;14.23;4.72;;;;;;;11.56;89.52;101665.03;5044423;28;20108;-71
2021/12/31 06:55:37;;;;;;;9.05;4.00;;;;;;;11.51;89.80;101662.91;5043287;28;20594;-70
2021/12/31 06:58:02;;;;;;;11.73;4.53;;;;;;;11.47;89.71;101660.81;5044694;28;20091;-70
2021/12/31 07:00:28;;;;;;;9.32;3.92;;;;;;;11.40;90.01;101674.56;5043067;28;20032;-71
2021/12/31 07:03:04;;;;;;;10.57;3.92;;;;;;;11.41;90.34;101670.78;5043876;28;20052;-70
2021/12/31 07:05:29;;;;;;;10.32;4.47;;;;;;;11.37;90.22;101684.09;5025232;28;20025;-70
2021/12/31 07:07:55;;;;;;;11.90;4.30;;;;;;;11.31;90.40;101690.47;5024269;28;20041;-70
2021/12/31 07:10:20;;;;;;;9.52;4.20;;;;;;;11.29;90.44;101691.75;5024040;28;20030;-70
2021/12/31 07:12:46;;;;;;;9.98;3.75;;;;;;;11.28;90.52;101679.06;5024953;28;20060;-70
2021/12/31 07:15:11;;;;;;;9.95;4.07;;;;;;;11.28;90.41;101682.66;5024105;28;20420;-70
2021/12/31 07:17:36;;;;;;;9.30;4.22;;;;;;;11.29;90.41;101676.06;5024547;28;20025;-70
2021/12/31 07:20:02;;;;;;;7.47;4.32;;;;;;;11.25;90.54;101677.56;5024380;28;20017;-71
2021/12/31 07:22:27;;;;;;;9.27;3.42;;;;;;;11.25;90.38;101680.31;5024746;28;20029;-70
2021/12/31 07:24:52;;;;;;;8.40;4.10;;;;;;;11.24;90.28;101678.63;5024215;28;20029;-70
2021/12/31 07:27:18;;;;;;;10.30;4.15;;;;;;;11.27;90.11;101678.22;5022625;28;20663;-70
2021/12/31 07:29:43;;;;;;;10.38;3.85;;;;;;;11.30;90.11;101686.00;5023885;28;20029;-70
2021/12/31 07:32:08;;;;;;;8.95;4.35;;;;;;;11.28;89.96;101692.81;5024057;28;20076;-70
2021/12/31 07:34:33;;;;;;;7.72;4.00;;;;;;;11.30;89.83;101688.75;5024359;28;20456;-70
2021/12/31 07:36:59;;;;;;;9.18;4.22;;;;;;;11.28;90.13;101687.31;5024746;28;20384;-71
2021/12/31 07:39:30;;;;;;;9.43;3.97;;;;;;;11.30;89.78;101686.00;5023712;28;20084;-70
2021/12/31 07:41:55;;;;;;;8.18;4.00;;;;;;;11.28;89.81;101698.31;5023557;28;20026;-71
2021/12/31 07:44:21;;;;;;;9.00;3.85;;;;;;;11.26;89.91;101693.03;5023191;28;20037;-70
2021/12/31 07:46:46;;;;;;;9.90;3.70;;;;;;;11.29;89.49;101683.47;5024003;28;20096;-71
2021/12/31 07:49:11;;;;;;;8.80;4.18;;;;;;;11.28;89.42;101685.41;5024397;28;20417;-71
2021/12/31 07:51:37;;;;;;;9.05;3.90;;;;;;;11.33;88.78;101685.59;5034079;28;20531;-71
2021/12/31 07:54:02;;;;;;;8.68;3.72;;;;;;;11.27;89.32;101689.22;5043364;28;20021;-65
2021/12/31 07:56:28;;;;;;;8.80;4.03;;;;;;;11.22;89.51;101694.50;5043834;28;20049;-71
2021/12/31 07:58:54;;;;;;;10.15;3.70;;;;;;;11.24;89.59;101695.13;5043022;28;20025;-70
2021/12/31 08:01:19;;;;;;;11.30;4.40;;;;;;;11.22;89.79;101686.25;5043822;28;20467;-70
2021/12/31 08:03:44;;;;;;;8.57;4.43;;;;;;;11.23;89.16;101685.19;5043545;28;20292;-70
2021/12/31 08:06:09;;;;;;;8.57;3.80;;;;;;;11.21;89.58;101692.81;5043070;28;20032;-70
2021/12/31 08:08:35;;;;;;;6.80;3.75;;;;;;;11.25;89.37;101699.56;5043729;28;20501;-70
2021/12/31 08:11:00;;;;;;;11.60;3.90;;;;;;;11.24;88.98;101697.88;5043044;28;20725;-71
2021/12/31 08:13:26;;;;;;;11.25;3.60;;;;;;;11.27;88.80;101707.63;5042501;28;20051;-70
2021/12/31 08:15:52;;;;;;;9.23;4.13;;;;;;;11.27;88.70;101694.72;5043391;28;20021;-71
2021/12/31 08:18:17;;;;;;;10.55;4.95;;;;;;;11.31;88.81;101695.13;5043026;28;20055;-70
2021/12/31 08:20:43;;;;;;;8.63;4.15;;;;;;;11.28;88.53;101679.91;5043730;28;20025;-71
2021/12/31 08:23:10;;;;;;;9.48;4.35;;;;;;;11.32;88.40;101688.56;5043091;28;20484;-71
2021/12/31 08:25:39;;;;;;;8.85;3.88;;;;;;;11.40;87.81;101707.56;5042731;28;20460;-71
2021/12/31 08:28:06;;;;;;;9.50;3.75;;;;;;;11.44;87.50;101693.19;5042572;28;20078;-71
2021/12/31 08:30:31;;;;;;;8.32;3.60;;;;;;;11.48;87.17;101698.25;5043227;28;20025;-63
2021/12/31 08:32:57;;;;;;;8.55;3.72;;;;;;;11.48;87.20;101690.84;5042922;28;20376;-71
2021/12/31 08:35:22;;;;;;;9.23;3.75;;;;;;;11.54;86.80;101689.13;5042749;28;20350;-71
2021/12/31 08:37:47;;;;;;;8.25;4.00;;;;;;;11.55;86.44;101704.56;5043148;28;20031;-71
2021/12/31 08:40:13;;;;;;;8.10;3.50;;;;;;;11.56;86.34;101687.88;5042781;28;20029;-70
2021/12/31 08:42:41;;;;;;;7.43;3.45;;;;;;;11.63;86.48;101694.19;5042583;28;20029;-71
2021/12/31 08:45:07;;;;;;;8.52;3.50;;;;;;;11.74;85.53;101700.91;5041923;28;20037;-70
2021/12/31 08:47:33;;;;;;;8.93;3.35;;;;;;;11.85;84.96;101691.16;5042503;28;20036;-71
2021/12/31 08:49:58;;;;;;;6.53;3.30;;;;;;;11.98;84.66;101679.25;5043373;28;20036;-71
2021/12/31 08:52:23;;;;;;;8.00;3.42;;;;;;;11.99;84.43;101681.78;5042178;28;20047;-71
2021/12/31 08:54:48;;;;;;;6.40;3.08;;;;;;;12.00;83.35;101674.34;5042430;28;20021;-71
2021/12/31 08:57:14;;;;;;;5.93;2.92;;;;;;;11.99;83.70;101670.78;5042138;28;20029;-70
2021/12/31 08:59:40;;;;;;;8.35;3.55;;;;;;;11.97;83.61;101661.06;5042528;28;20024;-70
2021/12/31 09:02:05;;;;;;;8.38;3.53;;;;;;;11.95;83.59;101661.25;5042351;28;20083;-71
2021/12/31 09:04:30;;;;;;;8.43;3.38;;;;;;;12.03;83.00;101666.50;5042755;28;20035;-71
2021/12/31 09:06:56;;;;;;;6.57;2.70;;;;;;;12.06;83.43;101670.72;5042161;28;20488;-71
2021/12/31 09:09:21;;;;;;;6.50;3.42;;;;;;;12.02;83.59;101664.84;5042585;28;20043;-71
2021/12/31 09:11:46;;;;;;;6.13;3.05;;;;;;;12.05;83.36;101669.88;5041726;28;20029;-71
2021/12/31 09:14:12;;;;;;;6.80;2.60;;;;;;;12.13;82.64;101666.03;5027845;28;20030;-71
2021/12/31 09:16:38;;;;;;;6.80;3.17;;;;;;;12.17;82.52;101684.66;5022336;28;20033;-71
2021/12/31 09:19:03;;;;;;;6.80;3.00;;;;;;;12.17;82.54;101681.06;5021364;28;20043;-70
2021/12/31 09:21:28;;;;;;;6.53;2.95;;;;;;;12.20;82.21;101666.81;5022780;28;20029;-72
2021/12/31 09:23:53;;;;;;;5.00;2.88;;;;;;;12.29;82.18;101676.53;5022559;28;20377;-71
2021/12/31 09:26:19;;;;;;;9.53;2.90;;;;;;;12.35;81.65;101681.13;5021770;28;20033;-71
2021/12/31 09:28:44;;;;;;;6.78;3.00;;;;;;;12.41;81.65;101680.25;5021737;28;20278;-70
2021/12/31 09:31:10;;;;;;;9.05;2.72;;;;;;;12.51;81.58;101681.66;5022173;28;20443;-72
2021/12/31 09:33:36;;;;;;;7.00;3.38;;;;;;;12.58;80.57;101675.06;5033682;28;20386;-72
2021/12/31 09:36:01;;;;;;;6.60;2.83;;;;;;;12.68;79.72;101680.06;5042334;28;20021;-65
2021/12/31 09:38:27;;;;;;;7.90;3.22;;;;;;;12.61;79.73;101690.28;5042444;28;20036;-71
2021/12/31 09:40:53;;;;;;;9.07;3.38;;;;;;;12.50;80.49;101705.63;5041684;28;20079;-71
2021/12/31 09:43:19;;;;;;;6.35;3.38;;;;;;;12.41;81.15;101707.78;5041094;28;20025;-71
2021/12/31 09:45:47;;;;;;;7.45;3.03;;;;;;;12.29;81.42;101704.06;5042516;28;20025;-71
2021/12/31 09:48:24;;;;;;;9.27;2.80;;;;;;;12.33;81.57;101710.81;5042169;28;20064;-71
2021/12/31 09:50:52;;;;;;;8.00;3.47;;;;;;;12.29;81.63;101698.56;5041982;28;20037;-72
2021/12/31 09:53:19;;;;;;;7.00;3.30;;;;;;;12.29;82.01;101728.84;5041956;28;20071;-72
2021/12/31 09:55:52;;;;;;;8.10;3.40;;;;;;;12.43;80.95;101721.38;5041199;28;20512;-72
2021/12/31 09:58:19;;;;;;;8.55;3.15;;;;;;;12.47;80.82;101717.09;5041248;28;20112;-71
2021/12/31 10:00:47;;;;;;;4.80;2.78;;;;;;;12.53;80.66;101731.91;5042019;28;20039;-72
2021/12/31 10:03:15;;;;;;;7.57;3.33;;;;;;;12.53;80.83;101737.41;5042083;28;20029;-72
2021/12/31 10:05:45;;;;;;;;;;;;;;;12.56;80.98;101714.91;5042687;28;20028;-73
2021/12/31 10:08:13;;;;;;;6.82;3.50;;;;;;;12.47;80.87;101717.09;5031920;28;19917;-74
2021/12/31 10:10:38;;;;;;;;;;;;;;;12.45;81.77;101708.19;5024651;28;20048;-71
2021/12/31 10:13:07;;;;;;;8.80;3.07;;;;;;;12.36;81.62;101728.81;5024291;28;19968;-72
2021/12/31 10:15:40;;;;;;;7.43;3.03;;;;;;;12.31;81.64;101734.13;5040169;28;20091;-72
2021/12/31 10:18:12;;;;;;;7.45;3.30;;;;;;;12.25;81.99;101727.59;5023946;28;20037;-73
2021/12/31 10:20:50;;;;;;;6.30;3.25;;;;;;;12.22;82.26;101707.94;5038593;28;20029;-71
2021/12/31 10:23:16;;;;;;;;;;;;;;;12.29;82.26;101705.97;5043392;28;20029;-73
2021/12/31 10:25:42;;;;;;;8.70;3.17;;;;;;;12.12;82.68;101698.25;5035963;28;19951;-72
2021/12/31 10:28:12;;;;;;;7.20;2.70;;;;;;;12.21;82.35;101696.06;5041005;28;20442;-72
2021/12/31 10:30:38;;;;;;;7.20;3.45;;;;;;;12.20;82.21;101697.13;5036667;28;20068;-73
2021/12/31 10:33:03;;;;;;;7.20;3.38;;;;;;;12.16;82.62;101687.59;5029450;28;20025;-72
2021/12/31 10:35:46;;;;;;;9.38;3.75;;;;;;;12.37;82.29;101694.72;5027017;28;20017;-72
2021/12/31 10:38:12;;;;;;;6.32;3.35;;;;;;;12.31;82.85;101701.09;5026740;28;20025;-73
2021/12/31 10:40:45;;;;;;;9.27;3.58;;;;;;;12.42;82.46;101697.66;5031470;28;20060;-74
2021/12/31 10:43:22;;;;;;;8.55;4.22;;;;;;;12.45;82.13;101702.69;5045373;28;20036;-73
2021/12/31 10:45:58;;;;;;;8.63;3.70;;;;;;;12.53;82.03;101705.19;5046562;28;20029;-73
2021/12/31 10:48:37;;;;;;;7.32;4.10;;;;;;;12.49;82.18;101711.38;5046373;28;20713;-73
2021/12/31 10:51:02;;;;;;;8.45;4.50;;;;;;;12.36;82.57;101721.38;5045629;28;20483;-68
2021/12/31 10:53:33;;;;;;;7.72;3.50;;;;;;;12.42;81.42;101716.94;5046208;28;20036;-72
2021/12/31 10:56:13;;;;;;;8.27;3.80;;;;;;;12.38;82.07;101718.44;5045979;28;20155;-73
2021/12/31 10:58:41;;;;;;;7.47;3.50;;;;;;;12.31;82.97;101712.94;5045371;28;20804;-73
2021/12/31 11:01:12;;;;;;;6.90;3.22;;;;;;;12.35;82.43;101716.94;5045989;28;20056;-72
2021/12/31 11:03:39;;;;;;;9.13;3.42;;;;;;;12.41;82.55;101710.53;5045964;28;20064;-72
2021/12/31 11:06:07;;;;;;;8.50;3.50;;;;;;;12.68;81.69;101700.19;5045203;28;20051;-69
2021/12/31 11:08:32;;;;;;;8.43;3.75;;;;;;;13.23;79.77;101694.88;5045781;28;20440;-71
2021/12/31 11:10:59;;;;;;;8.23;3.75;;;;;;;13.66;77.77;101690.34;5045873;28;20037;-72
2021/12/31 11:13:28;;;;;;;9.57;4.05;;;;;;;13.61;77.13;101682.75;5044647;28;20436;-73
2021/12/31 11:15:54;;;;;;;8.70;3.60;;;;;;;13.80;76.36;101675.31;5045701;28;20036;-73
2021/12/31 11:18:23;;;;;;;7.40;3.60;;;;;;;13.91;76.03;101660.72;5045568;28;20048;-73
2021/12/31 11:20:50;;;;;;;6.80;3.40;;;;;;;14.52;74.13;101673.47;5045736;28;20170;-73